Latest Coastal Weather Observations for Cooktown

IDQ60701

Issued at 1:22 pm EST Saturday 25 June 2016 (issued every 10 minutes, with the page automatically refreshed every 10 minutes)

About coastal observations | Map of coastal stations | Coastal observations for QLD | Marine services | Other Formats
Station Details ID: 031209 Name: COOKTOWN AIRPORT Lat: -15.45 Lon: 145.19 Height: 4.8 m
Data from the previous 72 hours. | See also: Recent months at Cooktown
Date/Time
EST
Temp
°C
Wind Pressure Rain since
9am
mm
Weather Cloud Vis
km
Sea
Height
m
Swell
Dir  Spd
kts
Gust
kts
hPa Trend Height
m
Period
s
Dir
25/01:10pm 27.6 E 14 19 1014.0 - 0.0 - Partly cloudy 10 - - - -
25/01:00pm 27.1 E 15 20 1014.1 - 0.0 - Partly cloudy 10 - - - -
25/12:42pm 27.0 E 14 20 1014.4 - 0.0 - Partly cloudy 10 - - - -
25/12:30pm 26.9 E 14 21 1014.7 - 0.0 - Partly cloudy 10 - - - -
25/12:00pm 27.6 E 16 21 1014.9 - 0.0 - Cloudy 10 - - - -
25/11:30am 26.8 E 14 19 1015.3 - 0.0 - Partly cloudy 10 - - - -
25/11:00am 27.4 E 15 22 1015.5 - 0.0 - Partly cloudy 10 - - - -
25/10:30am 27.5 E 14 18 1015.6 - 0.0 - Partly cloudy 10 - - - -
25/10:00am 27.6 ESE 12 18 1015.6 - 0.0 - Partly cloudy 10 - - - -
25/09:30am 26.9 ESE 13 19 1015.5 - 0.0 - Partly cloudy 10 - - - -
25/09:00am 26.5 ESE 13 18 1015.0 R 0.0 Fine Mostly cloudy 35 - - - -
25/08:30am 26.4 ESE 12 20 1014.9 - 0.0 - Partly cloudy 10 - - - -
25/08:00am 25.8 ESE 11 15 1014.4 - 0.0 - Partly cloudy 10 - - - -
25/07:30am 25.3 ESE 9 14 1014.1 - 0.0 - Partly cloudy 10 - - - -
25/07:00am 25.0 ESE 8 15 1013.8 - 0.0 - Partly cloudy 10 - - - -
25/06:30am 24.8 ESE 7 10 1013.5 - 0.0 - Partly cloudy 10 - - - -
25/06:00am 24.8 ESE 8 11 1013.3 - 0.0 - Cloudy 10 - - - -
25/05:30am 24.8 E 9 11 1013.1 - 0.0 - Partly cloudy 10 - - - -
25/05:24am 24.9 E 11 16 1013.1 - 0.0 - Partly cloudy 10 - - - -
25/05:14am 25.0 E 9 13 1013.0 - 0.0 - Partly cloudy 10 - - - -
25/05:00am 25.0 ESE 10 13 1013.0 - 0.0 - Partly cloudy 10 - - - -
25/04:30am 24.8 ESE 8 11 1012.7 - 0.0 - Partly cloudy 10 - - - -
25/04:00am 25.0 ESE 7 12 1012.6 - 0.0 - Partly cloudy 10 - - - -
25/03:30am 24.4 E 6 9 1012.6 - 0.0 - Partly cloudy 10 - - - -
25/03:00am 24.0 ESE 5 7 1012.8 - 0.0 - Mostly clear 10 - - - -
25/02:30am 24.2 ESE 6 9 1013.0 - 0.0 - Partly cloudy 10 - - - -
25/02:00am 24.4 ESE 5 6 1013.2 - 0.0 - Partly cloudy 10 - - - -
25/01:30am 24.4 ESE 6 9 1013.5 - 0.0 - Partly cloudy 10 - - - -
25/01:23am 24.5 E 6 9 1013.6 - 0.0 - Partly cloudy 10 - - - -
25/01:00am 25.0 SE 4 5 1013.5 - 0.0 - Partly cloudy 10 - - - -
25/12:57am 25.0 ESE 4 6 1013.5 - 0.0 - Partly cloudy 10 - - - -
25/12:31am 25.2 E 7 10 1013.6 - 0.0 - Partly cloudy 10 - - - -
25/12:30am 25.2 E 7 10 1013.6 - 0.0 - Partly cloudy 10 - - - -
25/12:00am 25.2 E 7 10 1013.8 - 0.0 - Cloudy 10 - - - -
 
Date/Time
EST
Temp
°C
Wind Pressure Rain since
9am
mm
Weather Cloud Vis
km
Sea
Height
m
Swell
Dir  Spd
kts
Gust
kts
hPa Trend Height
m
Period
s
Dir
24/11:30pm 25.2 E 7 8 1014.0 - 0.0 - Partly cloudy 10 - - - -
24/11:00pm 25.2 E 8 11 1014.3 - 0.0 - Partly cloudy 10 - - - -
24/10:30pm 25.3 E 7 10 1014.3 - 0.0 - Partly cloudy 10 - - - -
24/10:11pm 25.2 E 7 10 1014.3 - 0.0 - Partly cloudy 10 - - - -
24/10:00pm 25.2 E 6 8 1014.3 - 0.0 - Partly cloudy 10 - - - -
24/09:56pm 25.1 E 6 8 1014.3 - 0.0 - Partly cloudy 10 - - - -
24/09:42pm 25.0 E 5 7 1014.3 - 0.0 - Partly cloudy 10 - - - -
24/09:30pm 24.7 E 1 5 1014.2 - 0.0 - Partly cloudy 10 - - - -
24/09:00pm 24.1 E 2 4 1014.1 - 0.0 - Cloudy 10 - - - -
24/08:57pm 24.1 E 2 4 1014.1 - 0.0 - Partly cloudy 10 - - - -
24/08:30pm 24.0 CALM 0 3 1013.8 - 0.0 - Partly cloudy 10 - - - -
24/08:00pm 23.7 E 3 5 1013.5 - 0.0 - Partly cloudy 10 - - - -
24/07:30pm 24.1 CALM 0 0 1013.4 - 0.0 - Partly cloudy 9 - - - -
24/07:00pm 24.5 SE 4 5 1013.3 - 0.0 - Partly cloudy 10 - - - -
24/06:30pm 24.8 ESE 3 5 1012.8 - 0.0 - Partly cloudy 10 - - - -
24/06:00pm 25.2 E 5 7 1012.5 - 0.0 - Mostly clear 10 - - - -
24/05:30pm 25.8 E 7 8 1012.4 - 0.0 - - 10 - - - -
24/05:00pm 26.4 E 9 12 1012.2 - 0.0 - Partly cloudy 10 - - - -
24/04:48pm 26.7 E 11 15 1012.3 - 0.0 - Partly cloudy 10 - - - -
24/04:30pm 27.0 E 10 13 1012.2 - 0.0 - Partly cloudy 10 - - - -
24/04:28pm 27.0 E 10 13 1012.1 - 0.0 - Partly cloudy 10 - - - -
24/04:00pm 27.3 E 10 14 1012.0 - 0.0 - Partly cloudy 10 - - - -
24/03:40pm 27.7 ENE 11 14 1012.0 - 0.0 - Partly cloudy 10 - - - -
24/03:30pm 27.6 E 10 13 1012.1 - 0.0 - Partly cloudy 10 - - - -
24/03:08pm 27.4 E 11 16 1012.2 - 0.0 - Partly cloudy 10 - - - -
24/03:00pm 27.6 E 9 13 1012.3 - 0.0 - Mostly clear 10 - - - -
24/02:30pm 28.3 E 11 16 1012.4 - 0.0 - Partly cloudy 10 - - - -
24/02:00pm 28.6 E 12 16 1012.4 - 0.0 - - 10 - - - -
24/01:30pm 28.8 E 11 17 1012.5 - 0.0 - - 10 - - - -
24/01:00pm 28.8 ESE 11 16 1012.9 - 0.0 - Partly cloudy 10 - - - -
24/12:30pm 29.1 ESE 10 16 1013.3 - 0.0 - Partly cloudy 10 - - - -
24/12:00pm 28.1 ESE 10 15 1013.8 - 0.0 - Cloudy 10 - - - -
24/11:30am 28.6 ESE 9 13 1013.9 - 0.0 - Partly cloudy 10 - - - -
24/11:00am 28.6 SE 10 16 1014.1 - 0.0 - Partly cloudy 10 - - - -
24/10:30am 27.6 ESE 10 13 1014.2 - 0.0 - Partly cloudy 10 - - - -
24/10:00am 27.0 SE 6 12 1014.2 - 0.0 - Partly cloudy 10 - - - -
24/09:30am 27.5 ESE 6 9 1014.2 - 0.0 - Partly cloudy 10 - - - -
24/09:00am 26.6 SE 5 8 1014.3 - 2.0 - Cloudy 10 - - - -
24/08:30am 26.3 SE 5 7 1014.1 - 2.0 - Partly cloudy 10 - - - -
24/08:00am 25.7 SE 1 3 1013.8 - 2.0 - Partly cloudy 10 - - - -
24/07:30am 24.2 CALM 0 0 1013.4 - 2.0 - Partly cloudy 10 - - - -
24/07:11am 23.8 SE 1 5 1013.3 - 2.0 - Partly cloudy 10 - - - -
24/07:00am 23.7 ESE 4 7 1013.3 - 2.0 - Partly cloudy 4 - - - -
24/06:53am 23.7 ESE 6 8 1013.3 - 2.0 - Partly cloudy 3 - - - -
24/06:41am 23.8 ESE 6 9 1013.2 - 2.0 - Partly cloudy 3 - - - -
24/06:30am 23.9 ESE 6 10 1013.1 - 1.6 - Partly cloudy 4 - - - -
24/06:03am 23.8 SE 5 8 1012.6 - 1.2 - Partly cloudy 5 - - - -
24/06:00am 23.8 SE 5 7 1012.5 - 1.2 - Cloudy 10 - - - -
24/05:46am 23.7 ESE 6 8 1012.5 - 1.2 - Partly cloudy 9 - - - -
24/05:42am 23.6 SE 5 8 1012.4 - 1.2 - Partly cloudy 10 - - - -
24/05:30am 23.8 ESE 4 6 1012.5 - 1.2 - Partly cloudy 4 - - - -
24/05:00am 23.8 ENE 5 8 1012.2 - 1.2 - Partly cloudy 5 - - - -
24/04:30am 23.8 E 6 9 1012.0 - 1.0 - Partly cloudy 5 - - - -
24/04:02am 23.7 N 4 7 1012.1 - 0.6 - Partly cloudy 5 - - - -
24/04:00am 23.7 NNW 4 6 1012.1 - 0.6 - Partly cloudy 6 - - - -
24/03:57am 23.7 NW 3 5 1012.1 - 0.6 - Cloudy 7 - - - -
24/03:48am 23.7 WNW 3 4 1011.9 - 0.6 - Cloudy 8 - - - -
24/03:35am 23.7 NW 3 4 1011.8 - 0.6 - Partly cloudy 5 - - - -
24/03:30am 23.7 NW 3 4 1011.9 - 0.6 - Cloudy 7 - - - -
24/03:00am 23.7 CALM 0 0 1011.8 - 0.6 - Cloudy 9 - - - -
24/02:30am 23.9 CALM 0 0 1012.1 - 0.6 - Partly cloudy 8 - - - -
24/02:00am 23.8 S 3 4 1012.3 - 0.6 - Partly cloudy 10 - - - -
24/01:30am 23.8 CALM 0 6 1012.4 - 0.6 - Cloudy 10 - - - -
24/01:00am 23.6 SE 4 6 1012.7 - 0.6 - Partly cloudy 10 - - - -
24/12:30am 23.5 SE 4 5 1012.8 - 0.6 - Partly cloudy 10 - - - -
24/12:11am 23.6 SSE 4 6 1013.0 - 0.6 - Partly cloudy 10 - - - -
24/12:09am 23.7 SSE 4 6 1013.1 - 0.6 - Partly cloudy 10 - - - -
24/12:00am 23.7 SSE 6 8 1013.1 - 0.6 - Cloudy 4 - - - -
 
Date/Time
EST
Temp
°C
Wind Pressure Rain since
9am
mm
Weather Cloud Vis
km
Sea
Height
m
Swell
Dir  Spd
kts
Gust
kts
hPa Trend Height
m
Period
s
Dir
23/11:30pm 23.8 ESE 6 9 1013.3 - 0.4 - Partly cloudy 3 - - - -
23/11:15pm 23.9 ESE 5 8 1013.2 - 0.2 - Partly cloudy 5 - - - -
23/11:12pm 23.9 ESE 5 7 1013.2 - 0.2 - Partly cloudy 6 - - - -
23/11:00pm 23.9 SE 7 11 1013.2 - 0.2 - Partly cloudy 4 - - - -
23/10:53pm 24.0 ESE 5 12 1013.2 - 0.2 - Partly cloudy 5 - - - -
23/10:48pm 23.9 SE 1 7 1013.2 - 0.2 - Partly cloudy 10 - - - -
23/10:30pm 23.8 CALM 0 0 1013.1 - 0.2 - Cloudy 10 - - - -
23/10:00pm 23.7 SE 1 4 1013.0 - 0.2 - Partly cloudy 10 - - - -
23/09:30pm 22.9 SE 3 5 1012.8 - 0.2 - Partly cloudy 10 - - - -
23/09:00pm 23.0 W 1 3 1012.7 - 0.2 - Mostly clear 10 - - - -
23/08:30pm 23.2 S 2 3 1012.7 - 0.2 - Partly cloudy 10 - - - -
23/08:00pm 23.7 SE 4 5 1012.6 - 0.2 - Partly cloudy 10 - - - -
23/07:30pm 24.1 SSE 3 4 1012.3 - 0.2 - Partly cloudy 10 - - - -
23/07:00pm 24.2 S 2 4 1012.1 - 0.2 - Partly cloudy 10 - - - -
23/06:30pm 24.2 SE 5 7 1012.0 - 0.2 - Partly cloudy 10 - - - -
23/06:25pm 24.2 SE 6 10 1012.0 - 0.2 - Partly cloudy 10 - - - -
23/06:00pm 24.5 E 3 14 1011.7 - 0.2 - Cloudy 9 - - - -
23/05:42pm 24.5 ESE 7 11 1011.7 - 0.2 - Partly cloudy 7 - - - -
23/05:30pm 24.6 ESE 11 16 1011.5 - 0.0 - Partly cloudy 3 - - - -
23/05:24pm 25.2 ESE 10 15 1011.4 - 0.0 - Partly cloudy 5 - - - -
23/05:00pm 26.0 ESE 9 15 1011.1 - 0.0 - Cloudy 10 - - - -
23/04:30pm 26.3 ESE 7 13 1010.8 - 0.0 - Partly cloudy 10 - - - -
23/04:00pm 26.2 SE 8 13 1010.7 - 0.0 - Partly cloudy 10 - - - -
23/03:30pm 26.6 SE 9 16 1010.7 - 0.0 - Partly cloudy 10 - - - -
23/03:00pm 27.2 SE 8 13 1010.8 - 0.0 - Cloudy 10 - - - -
23/02:30pm 27.1 ESE 7 11 1010.8 - 0.0 - Cloudy 10 - - - -
23/02:00pm 26.9 ESE 7 11 1011.1 - 0.0 - Partly cloudy 10 - - - -
23/01:30pm 27.1 ESE 9 13 1011.4 - 0.0 - Partly cloudy 10 - - - -
23/01:00pm 27.4 SE 9 15 1011.8 - 0.0 - Partly cloudy 10 - - - -
23/12:30pm 27.1 SE 6 10 1012.2 - 0.0 - Partly cloudy 10 - - - -
23/12:00pm 26.6 ESE 10 15 1012.4 - 0.0 - Mostly cloudy 10 - - - -
23/11:43am 26.6 ESE 10 15 1012.6 - 0.0 - Partly cloudy 10 - - - -
23/11:30am 26.6 ESE 10 16 1012.7 - 0.0 - Partly cloudy 10 - - - -
23/11:00am 26.8 ESE 8 12 1012.9 - 0.0 - Partly cloudy 10 - - - -
23/10:42am 27.0 SE 8 13 1012.9 - 0.0 - Partly cloudy 10 - - - -
23/10:30am 27.3 ESE 7 11 1013.0 - 0.0 - Partly cloudy 10 - - - -
23/10:00am 26.3 ESE 7 11 1013.2 - 0.0 - Cloudy 10 - - - -
23/09:30am 26.1 SE 6 11 1013.4 - 0.0 - Cloudy 10 - - - -
23/09:00am 25.8 SE 7 11 1013.2 R 0.0 Fine Mostly cloudy 25 - - - -
23/08:30am 25.5 SE 6 10 1012.9 - 0.0 - Cloudy 10 - - - -
23/08:19am 25.5 SE 6 8 1012.8 - 0.0 - Partly cloudy 10 - - - -
23/08:00am 25.3 SE 6 10 1012.7 - 0.0 - Partly cloudy 10 - - - -
23/07:39am 25.1 SE 4 5 1012.5 - 0.0 - Partly cloudy 10 - - - -
23/07:30am 24.9 SE 4 6 1012.3 - 0.0 - Partly cloudy 10 - - - -
23/07:00am 24.5 ESE 4 5 1012.2 - 0.0 - Partly cloudy 10 - - - -
23/06:50am 24.6 ESE 4 5 1012.2 - 0.0 - Partly cloudy 10 - - - -
23/06:30am 24.6 SE 5 9 1012.1 - 0.0 - Partly cloudy 10 - - - -
23/06:15am 24.4 SE 4 6 1012.0 - 0.0 - Partly cloudy 10 - - - -
23/06:00am 24.4 ESE 5 7 1011.8 - 0.0 - Cloudy 10 - - - -
23/05:57am 24.4 ESE 5 9 1011.8 - 0.0 - Partly cloudy 10 - - - -
23/05:39am 24.2 ESE 4 6 1011.8 - 0.0 - Partly cloudy 10 - - - -
23/05:30am 24.3 ESE 5 8 1011.7 - 0.0 - Partly cloudy 10 - - - -
23/05:15am 24.3 SSE 5 8 1011.6 - 0.0 - Partly cloudy 10 - - - -
23/05:00am 24.5 SE 5 7 1011.7 - 0.0 - Partly cloudy 10 - - - -
23/04:30am 24.5 SE 6 7 1011.8 - 0.0 - Partly cloudy 10 - - - -
23/04:29am 24.5 SE 6 9 1011.8 - 0.0 - Partly cloudy 10 - - - -
23/04:25am 24.6 SE 6 9 1011.7 - 0.0 - Partly cloudy 10 - - - -
23/04:00am 24.6 SSE 5 8 1011.7 - 0.0 - Partly cloudy 10 - - - -
23/03:42am 24.7 SSE 5 7 1011.8 - 0.0 - Partly cloudy 10 - - - -
23/03:38am 24.7 SSE 4 7 1011.8 - 0.0 - Partly cloudy 10 - - - -
23/03:30am 24.6 SSE 4 6 1011.8 - 0.0 - Partly cloudy 10 - - - -
23/03:00am 25.0 SE 3 4 1012.0 - 0.0 - Cloudy 10 - - - -
23/02:30am 25.1 ESE 5 7 1012.1 - 0.0 - Partly cloudy 10 - - - -
23/02:21am 25.1 ESE 4 7 1012.1 - 0.0 - Partly cloudy 10 - - - -
23/02:00am 25.2 ESE 4 7 1012.3 - 0.0 - Partly cloudy 10 - - - -
23/01:30am 25.2 SE 5 8 1012.4 - 0.0 - Partly cloudy 10 - - - -
23/01:00am 25.2 SE 6 11 1012.7 - 0.0 - Partly cloudy 10 - - - -
23/12:30am 25.1 ESE 6 8 1012.8 - 0.0 - Partly cloudy 10 - - - -
23/12:00am 25.2 ESE 7 12 1013.1 - 0.0 - Cloudy 10 - - - -
 
Date/Time
EST
Temp
°C
Wind Pressure Rain since
9am
mm
Weather Cloud Vis
km
Sea
Height
m
Swell
Dir  Spd
kts
Gust
kts
hPa Trend Height
m
Period
s
Dir
22/11:30pm 25.0 ESE 8 11 1013.2 - 0.0 - Partly cloudy 10 - - - -
22/11:00pm 25.3 ESE 7 11 1013.1 - 0.0 - Cloudy 10 - - - -
22/10:30pm 25.3 ESE 8 11 1013.4 - 0.0 - Cloudy 10 - - - -
22/10:00pm 25.2 E 7 9 1013.4 - 0.0 - Cloudy 10 - - - -
22/09:30pm 25.3 E 6 9 1013.4 - 0.0 - Cloudy 10 - - - -
22/09:00pm 25.5 SE 4 9 1013.1 - 0.0 - Cloudy 10 - - - -
22/08:30pm 25.2 ENE 3 5 1012.8 - 0.0 - Cloudy 10 - - - -
22/08:00pm 25.2 ESE 5 7 1012.4 - 0.0 - Cloudy 10 - - - -
22/07:30pm 25.4 SE 7 10 1012.1 - 0.0 - Partly cloudy 10 - - - -
22/07:00pm 25.5 ESE 8 13 1012.1 - 0.0 - Cloudy 10 - - - -
22/06:30pm 25.4 SE 6 9 1011.7 - 0.0 - Cloudy 10 - - - -
22/06:00pm 25.3 ESE 10 13 1011.5 - 0.0 - Cloudy 10 - - - -
22/05:30pm 25.5 ESE 10 13 1011.3 - 0.0 - Cloudy 10 - - - -
22/05:00pm 25.9 SE 6 11 1011.0 - 0.0 - Cloudy 10 - - - -
22/04:30pm 26.0 SE 9 14 1010.8 - 0.0 - Cloudy 10 - - - -
22/04:00pm 26.2 SE 7 11 1010.7 - 0.0 - Cloudy 10 - - - -
22/03:30pm 26.5 SE 8 13 1010.6 - 0.0 - Cloudy 10 - - - -
22/03:00pm 27.4 SE 8 12 1010.7 - 0.0 - Cloudy 10 - - - -
22/02:30pm 27.0 ESE 11 15 1010.9 - 0.0 - Cloudy 10 - - - -
22/02:00pm 26.9 ESE 9 13 1011.2 - 0.0 - Cloudy 10 - - - -
22/01:30pm 27.0 ESE 10 14 1011.7 - 0.0 - Partly cloudy 10 - - - -

Other Formats:

Comma delimited format used in spreadsheet applications
http://www.bom.gov.au/fwo/IDQ60701/IDQ60701.95283.axf

JavaScript Object Notation format (JSON) in row-major order
http://www.bom.gov.au/fwo/IDQ60701/IDQ60701.95283.json